Terminal Aerodrome Forecast
Issued by NWS Billings, MT

Home | Current Version | Previous Version | Graphics & Text | Print | Product List | Glossary On
Versions: 1 2 3 4 5 6 7 8 9 10 11 12 13
000
FTUS45 KBYZ 220502 AAA
TAFMLS
TAF AMD
KMLS 220502Z 2205/2224 28017KT P6SM -SHRA BKN090
     FM220600 28015KT P6SM BKN100
     FM220800 27011KT P6SM SCT100=

USA.gov is the U.S. government's official web portal to all federal, state and local government web resources and services.